< Typhoon 198218 1982 Season Typhoon 198220 >
Typhoon 198219 (KEN)
General InformationDetailed Track InformationTrack Information on Google MapsList of All Images || Disaster Info.ResourceGoogle EarthGE AnimationAtom FeedGeoJSON
Detalied Best Track Wind (Time Zone = UTC)
Year Month Day Hour Lat. Long. Wind (kt) Gust (kt) Direc. of Major Storm Axis Radius of Major Storm Axis (nm) Radius of Minor Storm Axis (nm) Direc. of Major Gale Axis Radius of Major Gale Axis (nm) Radius of Minor Gale Axis (nm) Image
1982 9 15 00 17.0 136.0 0 0 - - - - - - Image
1982 9 15 06 17.0 135.0 0 0 - - - - - - Image
1982 9 15 12 17.2 134.2 0 0 - - - - - - Image
1982 9 15 18 17.5 133.5 0 0 - - - - - - Image
1982 9 16 00 17.5 132.7 0 0 - - - - - - Image
1982 9 16 06 17.6 132.3 0 0 - - - - - - Image
1982 9 16 12 17.8 131.8 35 0 - - - symmetric 100 100 Image
1982 9 16 18 18.1 131.1 35 0 - - - symmetric 100 100 Image
1982 9 17 00 18.4 130.5 45 0 - - - symmetric 100 100 Image
1982 9 17 06 18.7 130.0 50 0 - - - symmetric 125 125 Image
1982 9 17 12 19.0 129.4 60 0 symmetric 50 50 symmetric 175 175 Image
1982 9 17 18 19.2 129.1 70 0 symmetric 50 50 symmetric 200 200 Image
1982 9 18 00 19.6 128.3 80 0 symmetric 60 60 symmetric 200 200 Image
1982 9 18 06 19.9 127.5 90 0 symmetric 100 100 symmetric 250 250 Image
1982 9 18 12 20.2 127.0 90 0 symmetric 100 100 symmetric 250 250 Image
1982 9 18 18 20.7 126.5 90 0 symmetric 100 100 symmetric 250 250 Image
1982 9 19 00 20.6 126.0 80 0 symmetric 100 100 symmetric 250 250 Image
1982 9 19 06 20.6 125.2 80 0 symmetric 100 100 symmetric 250 250 Image
1982 9 19 12 20.6 124.9 85 0 symmetric 100 100 symmetric 200 200 Image
1982 9 19 18 20.7 124.6 85 0 symmetric 100 100 symmetric 200 200 Image
1982 9 20 00 20.8 124.4 85 0 symmetric 100 100 symmetric 200 200 Image
1982 9 20 06 20.9 124.1 85 0 symmetric 100 100 symmetric 200 200 Image
1982 9 20 12 21.0 124.3 95 0 symmetric 125 125 symmetric 200 200 Image
1982 9 20 18 21.0 124.6 95 0 symmetric 125 125 symmetric 200 200 Image
1982 9 21 00 21.1 124.8 85 0 symmetric 100 100 symmetric 200 200 Image
1982 9 21 06 21.2 124.9 85 0 symmetric 100 100 symmetric 200 200 Image
1982 9 21 12 21.3 124.9 80 0 symmetric 80 80 symmetric 175 175 Image
1982 9 21 18 21.8 124.8 80 0 symmetric 80 80 symmetric 175 175 Image
1982 9 22 00 22.2 125.2 70 0 symmetric 70 70 symmetric 175 175 Image
1982 9 22 06 22.7 125.7 70 0 symmetric 70 70 symmetric 175 175 Image
1982 9 22 12 23.0 126.3 70 0 symmetric 70 70 symmetric 200 200 Image
1982 9 22 18 23.4 126.8 70 0 symmetric 70 70 symmetric 200 200 Image
1982 9 23 00 24.2 127.6 70 0 symmetric 70 70 symmetric 200 200 Image
1982 9 23 06 24.9 128.3 70 0 symmetric 70 70 symmetric 200 200 Image
1982 9 23 12 25.8 129.3 70 0 SE 150 75 symmetric 300 300 Image
1982 9 23 18 26.9 130.3 70 0 SE 150 75 symmetric 300 300 Image
1982 9 24 00 27.9 130.8 70 0 SE 150 75 symmetric 300 300 Image
1982 9 24 06 29.4 131.5 70 0 SE 150 75 symmetric 300 300 Image
1982 9 24 12 31.2 132.3 70 0 SE 150 75 symmetric 300 300 Image
1982 9 24 18 33.1 132.5 50 0 SE 100 50 symmetric 200 200 Image
1982 9 25 00 35.4 132.4 45 0 - - - symmetric 200 200 Image
1982 9 25 06 37.0 132.5 0 0 - - - - - - Image
1982 9 25 12 38.0 133.0 0 0 - - - - - - Image
1982 9 25 18 38.5 134.0 0 0 - - - - - - Image
1982 9 26 00 39.3 135.2 0 0 - - - - - - Image
1982 9 26 06 40.5 137.0 0 0 - - - - - - Image
1982 9 26 12 42.5 140.0 0 0 - - - - - - Image
1982 9 26 18 45.0 144.0 0 0 - - - - - - Image
1982 9 27 00 48.0 150.0 0 0 - - - - - - Image
Japan Meteorological Agency Best Track Data | Correction Date : 1992-10-21
< Typhoon 198218 1982 Season Typhoon 198220 >

Help